Time;durP1;ratioP1;P1;durP2;ratioP2;P2;SDS_P1;SDS_P2;PMS_P1;PMS_P2;Temp;Humidity;BMP_temperature;BMP_pressure;BME280_temperature;BME280_humidity;BME280_pressure;Samples;Min_cycle;Max_cycle;Signal;HPM_P1;HPM_P2
2021/01/24 00:00:12;;;;;;;5.40;4.90;;;6.60;99.90;;;;;;5057413;28;20167;-68
2021/01/24 00:02:37;;;;;;;7.90;5.27;;;6.70;99.90;;;;;;5056276;28;20178;-68
2021/01/24 00:05:04;;;;;;;6.67;5.23;;;6.60;99.90;;;;;;5056490;28;20425;-68
2021/01/24 00:07:29;;;;;;;6.47;5.50;;;6.60;99.90;;;;;;5056916;28;20177;-68
2021/01/24 00:09:55;;;;;;;5.20;4.70;;;6.60;99.90;;;;;;5058049;28;20427;-68
2021/01/24 00:12:20;;;;;;;5.80;4.80;;;6.60;99.90;;;;;;5058327;28;20210;-68
2021/01/24 00:14:46;;;;;;;6.70;5.00;;;6.50;99.90;;;;;;5055643;28;20513;-68
2021/01/24 00:17:11;;;;;;;7.00;5.90;;;6.50;99.90;;;;;;5055530;28;20174;-68
2021/01/24 00:19:37;;;;;;;8.03;6.47;;;6.50;99.90;;;;;;5049379;28;20190;-69
2021/01/24 00:22:03;;;;;;;7.60;6.23;;;6.50;99.90;;;;;;5046625;28;20194;-69
2021/01/24 00:24:28;;;;;;;11.50;8.60;;;6.50;99.90;;;;;;5047311;28;20257;-69
2021/01/24 00:26:54;;;;;;;9.10;8.10;;;6.40;99.90;;;;;;5053183;28;20176;-68
2021/01/24 00:29:19;;;;;;;14.63;9.40;;;6.40;99.90;;;;;;5057289;28;20174;-70
2021/01/24 00:31:45;;;;;;;8.93;7.53;;;6.40;99.90;;;;;;5050439;28;20231;-72
2021/01/24 00:34:10;;;;;;;11.43;7.20;;;6.30;99.90;;;;;;5046961;28;20198;-72
2021/01/24 00:36:36;;;;;;;9.37;7.93;;;6.40;99.90;;;;;;5041752;28;20183;-72
2021/01/24 00:39:04;;;;;;;10.63;6.90;;;6.50;99.90;;;;;;5031913;28;20221;-68
2021/01/24 00:41:29;;;;;;;6.63;5.20;;;6.60;99.90;;;;;;5032311;28;20661;-67
2021/01/24 00:43:55;;;;;;;6.10;4.70;;;6.70;99.90;;;;;;5032624;28;20517;-68
2021/01/24 00:46:20;;;;;;;7.47;5.10;;;6.60;99.90;;;;;;5051445;28;20187;-66
2021/01/24 00:48:46;;;;;;;5.60;5.00;;;6.50;99.90;;;;;;5051592;28;20544;-67
2021/01/24 00:51:12;;;;;;;7.13;4.77;;;6.30;99.90;;;;;;5051371;28;20214;-68
2021/01/24 00:53:37;;;;;;;5.00;4.43;;;6.30;99.90;;;;;;5054864;28;20175;-67
2021/01/24 00:56:03;;;;;;;5.73;5.00;;;6.30;99.90;;;;;;5055052;28;20183;-68
2021/01/24 00:58:28;;;;;;;8.27;6.33;;;6.10;99.90;;;;;;5055357;28;20182;-67
2021/01/24 01:00:54;;;;;;;6.80;5.40;;;6.00;99.90;;;;;;5054879;28;20469;-68
2021/01/24 01:03:19;;;;;;;5.70;4.73;;;6.00;99.90;;;;;;5055299;28;20189;-67
2021/01/24 01:05:46;;;;;;;4.40;3.67;;;6.00;99.90;;;;;;5036042;28;20183;-67
2021/01/24 01:08:12;;;;;;;7.87;4.80;;;5.90;99.90;;;;;;5055161;28;20191;-67
2021/01/24 01:10:38;;;;;;;5.10;4.43;;;5.90;99.90;;;;;;5055009;28;20476;-68
2021/01/24 01:13:03;;;;;;;5.73;4.60;;;5.80;99.90;;;;;;5054345;28;20435;-69
2021/01/24 01:15:29;;;;;;;5.70;5.10;;;5.70;99.90;;;;;;5052651;28;20185;-69
2021/01/24 01:17:55;;;;;;;5.93;4.80;;;5.60;99.90;;;;;;5052876;28;20187;-67
2021/01/24 01:20:20;;;;;;;6.27;5.50;;;5.60;99.90;;;;;;5054523;28;20692;-68
2021/01/24 01:22:46;;;;;;;7.90;5.53;;;5.50;99.90;;;;;;5054657;28;20272;-68
2021/01/24 01:25:12;;;;;;;4.83;3.80;;;5.50;99.90;;;;;;5054262;28;20191;-68
2021/01/24 01:27:38;;;;;;;5.10;4.60;;;5.50;99.90;;;;;;5055298;28;20546;-68
2021/01/24 01:30:05;;;;;;;5.33;4.30;;;5.50;99.90;;;;;;5055162;28;20321;-68
2021/01/24 01:32:30;;;;;;;5.87;4.90;;;5.50;99.90;;;;;;5055158;28;21007;-66
2021/01/24 01:34:56;;;;;;;5.73;4.23;;;5.50;99.90;;;;;;5055437;28;20558;-67
2021/01/24 01:37:21;;;;;;;7.20;5.17;;;5.50;99.90;;;;;;5055624;28;20236;-67
2021/01/24 01:39:47;;;;;;;5.70;4.40;;;5.50;99.90;;;;;;5055358;28;20261;-67
2021/01/24 01:42:13;;;;;;;4.73;3.87;;;5.50;99.90;;;;;;5055354;28;20193;-66
2021/01/24 01:44:41;;;;;;;5.73;4.80;;;5.50;99.90;;;;;;5055374;28;20657;-66
2021/01/24 01:47:07;;;;;;;10.60;4.80;;;5.50;99.90;;;;;;5055067;28;20432;-66
2021/01/24 01:49:32;;;;;;;5.20;4.03;;;5.50;99.90;;;;;;5055347;28;20436;-66
2021/01/24 01:51:58;;;;;;;3.70;3.10;;;5.50;99.90;;;;;;5055107;28;20477;-66
2021/01/24 01:54:24;;;;;;;5.63;4.17;;;5.50;99.90;;;;;;5055132;28;20234;-66
2021/01/24 01:56:49;;;;;;;4.23;3.83;;;5.50;99.90;;;;;;5055152;28;20202;-66
2021/01/24 01:59:15;;;;;;;4.97;3.37;;;5.50;99.90;;;;;;5055172;28;20679;-66
2021/01/24 02:02:14;;;;;;;4.57;3.90;;;5.40;99.90;;;;;;5053678;28;20278;-66
2021/01/24 02:04:44;;;;;;;7.07;5.00;;;5.50;99.90;;;;;;5054630;28;20231;-66
2021/01/24 02:07:24;;;;;;;4.30;3.67;;;5.50;99.90;;;;;;5054874;28;20893;-66
2021/01/24 02:10:09;;;;;;;9.30;3.80;;;5.50;99.90;;;;;;5055143;28;20452;-66
2021/01/24 02:13:02;;;;;;;4.40;3.20;;;5.40;99.90;;;;;;5054855;28;20456;-65
2021/01/24 02:15:30;;;;;;;4.13;2.50;;;5.40;99.90;;;;;;5054610;28;20433;-65
2021/01/24 02:18:04;;;;;;;3.43;2.73;;;5.40;99.90;;;;;;5054612;28;20463;-67
2021/01/24 02:20:51;;;;;;;2.50;2.30;;;5.50;99.90;;;;;;5055036;28;20428;-66
2021/01/24 06:31:55;;;;;;;10.73;9.63;;;4.50;99.90;;;;;;5359103;23;20604;-70
2021/01/24 06:34:38;;;;;;;9.73;8.80;;;4.50;99.90;;;;;;4937823;29;20479;-69
2021/01/24 06:37:07;;;;;;;13.53;9.00;;;4.50;99.90;;;;;;4937729;29;20452;-68
2021/01/24 06:39:52;;;;;;;12.13;10.87;;;4.50;99.90;;;;;;4937583;29;21140;-69
2021/01/24 06:42:36;;;;;;;10.47;9.10;;;4.50;99.90;;;;;;4937678;29;20504;-69
2021/01/24 06:45:23;;;;;;;10.17;9.07;;;4.50;99.90;;;;;;4937531;29;20452;-69
2021/01/24 06:47:49;;;;;;;10.70;9.50;;;4.50;99.90;;;;;;4937139;29;20532;-69
2021/01/24 06:50:34;;;;;;;10.77;9.67;;;4.50;99.90;;;;;;4937352;29;20448;-69
2021/01/24 06:53:08;;;;;;;8.97;7.90;;;4.50;99.90;;;;;;4963702;23;20503;-68
2021/01/24 06:55:34;;;;;;;9.70;7.87;;;4.50;99.90;;;;;;4937379;29;20447;-68
2021/01/24 06:58:29;;;;;;;9.50;7.23;;;4.50;99.90;;;;;;4937222;29;20537;-67
2021/01/24 07:01:23;;;;;;;8.73;7.27;;;4.60;99.90;;;;;;4932393;29;20193;-69
2021/01/24 07:04:18;;;;;;;6.70;6.10;;;4.60;99.90;;;;;;4935397;29;20454;-68
2021/01/24 07:06:47;;;;;;;7.90;6.30;;;4.60;99.90;;;;;;4925662;29;20437;-69
2021/01/24 07:09:25;;;;;;;7.50;6.07;;;4.50;99.90;;;;;;4932514;29;20994;-69
2021/01/24 07:12:01;;;;;;;7.00;5.97;;;4.50;99.90;;;;;;4930942;29;20481;-69
2021/01/24 07:14:35;;;;;;;8.00;5.93;;;4.50;99.90;;;;;;4935692;29;20430;-69
2021/01/24 07:17:09;;;;;;;7.70;6.90;;;4.50;99.90;;;;;;4934702;29;20468;-69
2021/01/24 07:19:37;;;;;;;8.10;6.60;;;4.50;99.90;;;;;;4929827;29;20431;-68
2021/01/24 07:22:04;;;;;;;10.00;7.90;;;4.50;99.90;;;;;;4935899;29;20457;-69
2021/01/24 07:24:30;;;;;;;7.43;6.27;;;4.50;99.90;;;;;;4934713;29;20529;-70
2021/01/24 07:26:57;;;;;;;7.10;5.77;;;4.60;99.90;;;;;;4934980;29;20884;-70
2021/01/24 07:29:23;;;;;;;6.80;5.90;;;4.50;99.90;;;;;;4929829;29;20434;-69
2021/01/24 07:31:50;;;;;;;8.13;6.87;;;4.50;99.90;;;;;;4934874;29;20486;-69
2021/01/24 07:34:22;;;;;;;8.10;6.27;;;4.50;99.90;;;;;;4934375;29;20457;-69
2021/01/24 07:36:49;;;;;;;7.13;6.00;;;4.50;99.90;;;;;;4930979;29;20441;-68
2021/01/24 07:39:14;;;;;;;7.23;6.17;;;4.50;99.90;;;;;;4931894;29;20531;-68
2021/01/24 07:41:41;;;;;;;7.23;5.57;;;4.50;99.90;;;;;;4934915;29;20525;-70
2021/01/24 07:44:07;;;;;;;6.77;6.00;;;4.50;99.90;;;;;;4934810;29;20186;-74
2021/01/24 07:46:33;;;;;;;9.17;7.20;;;4.50;99.90;;;;;;4933509;29;20438;-73
2021/01/24 07:48:58;;;;;;;7.77;6.57;;;4.50;99.90;;;;;;4933345;29;20233;-72
2021/01/24 07:51:24;;;;;;;9.73;7.50;;;4.50;99.90;;;;;;4934283;29;20323;-71
2021/01/24 07:53:50;;;;;;;11.57;9.37;;;4.60;99.90;;;;;;4934349;29;20211;-73
2021/01/24 07:56:15;;;;;;;10.47;8.33;;;4.60;99.90;;;;;;4934713;29;20592;-67
2021/01/24 07:58:41;;;;;;;10.50;8.73;;;4.60;99.90;;;;;;4933794;29;20287;-68
2021/01/24 08:01:08;;;;;;;12.50;9.47;;;4.60;99.90;;;;;;4933827;29;20196;-68
2021/01/24 08:03:34;;;;;;;9.80;8.77;;;4.60;99.90;;;;;;4931647;29;20854;-68
2021/01/24 08:06:07;;;;;;;13.75;10.18;;;4.60;99.90;;;;;;4933385;29;20842;-67
2021/01/24 08:08:35;;;;;;;13.47;11.37;;;5.10;99.90;;;;;;4935122;29;20213;-69
2021/01/24 08:11:01;;;;;;;17.17;10.30;;;5.10;99.90;;;;;;4935104;29;20490;-68
2021/01/24 08:13:27;;;;;;;14.47;10.70;;;5.00;99.90;;;;;;4935269;29;20863;-67
2021/01/24 08:15:53;;;;;;;15.57;10.90;;;5.00;99.90;;;;;;4934735;29;20486;-67
2021/01/24 08:18:20;;;;;;;16.80;12.10;;;5.00;99.90;;;;;;4935040;29;20186;-67
2021/01/24 08:20:46;;;;;;;15.73;11.60;;;5.00;99.90;;;;;;4935083;29;20446;-67
2021/01/24 08:23:13;;;;;;;19.37;12.27;;;4.90;99.90;;;;;;4935122;29;20450;-67
2021/01/24 08:25:40;;;;;;;14.03;10.30;;;4.90;99.90;;;;;;4935079;29;20438;-67
2021/01/24 08:28:07;;;;;;;16.90;11.43;;;4.90;99.90;;;;;;4934526;29;20445;-67
2021/01/24 08:30:38;;;;;;;17.77;11.67;;;4.90;99.90;;;;;;4934883;29;20445;-67
2021/01/24 08:33:06;;;;;;;14.30;10.80;;;4.90;99.90;;;;;;4934805;29;20466;-67
2021/01/24 08:35:34;;;;;;;17.37;12.17;;;4.90;99.90;;;;;;4934816;29;20441;-66
2021/01/24 08:38:03;;;;;;;16.40;12.30;;;4.80;99.90;;;;;;4934900;29;20447;-66
2021/01/24 08:40:36;;;;;;;21.63;13.10;;;4.80;99.90;;;;;;4934658;29;20517;-68
2021/01/24 08:43:02;;;;;;;17.27;11.20;;;4.90;99.90;;;;;;4932427;29;20937;-67
2021/01/24 08:45:28;;;;;;;16.47;11.83;;;4.90;99.90;;;;;;4934937;29;20453;-68
2021/01/24 08:47:59;;;;;;;17.93;12.50;;;4.80;99.90;;;;;;4934615;29;20438;-68
2021/01/24 08:50:36;;;;;;;24.67;14.43;;;4.80;99.90;;;;;;4934814;29;20481;-67
2021/01/24 08:53:04;;;;;;;18.57;12.13;;;4.80;99.90;;;;;;4934567;29;20508;-67
2021/01/24 08:55:30;;;;;;;20.50;13.00;;;4.80;99.90;;;;;;4934693;29;20941;-67
2021/01/24 08:57:55;;;;;;;19.90;13.50;;;4.80;99.90;;;;;;4934433;29;20451;-67
2021/01/24 09:00:23;;;;;;;22.80;15.57;;;4.80;99.90;;;;;;4934629;29;20181;-67
2021/01/24 09:02:49;;;;;;;20.57;15.50;;;4.80;99.90;;;;;;4934532;29;20222;-66
2021/01/24 09:05:39;;;;;;;28.27;16.30;;;4.90;99.90;;;;;;4934542;29;21016;-67
2021/01/24 09:08:05;;;;;;;20.33;13.43;;;4.90;99.90;;;;;;4931453;29;20454;-67
2021/01/24 09:10:31;;;;;;;18.27;13.13;;;4.90;99.90;;;;;;4932976;29;20949;-67
2021/01/24 09:13:02;;;;;;;20.30;14.67;;;4.90;99.90;;;;;;4934425;29;20210;-67
2021/01/24 09:15:30;;;;;;;24.30;15.47;;;4.90;99.90;;;;;;4936367;29;20476;-67
2021/01/24 09:17:57;;;;;;;27.23;14.77;;;4.90;99.90;;;;;;4935321;29;20451;-68
2021/01/24 09:20:25;;;;;;;27.47;14.70;;;4.90;99.90;;;;;;4937006;29;20484;-67
2021/01/24 09:22:51;;;;;;;23.87;16.50;;;5.00;99.90;;;;;;4934378;29;20795;-67
2021/01/24 09:25:16;;;;;;;25.37;15.47;;;5.00;99.90;;;;;;4937541;29;20433;-68
2021/01/24 09:27:42;;;;;;;27.57;17.50;;;4.90;99.90;;;;;;4937593;29;20445;-67
2021/01/24 09:30:13;;;;;;;31.57;17.80;;;4.90;99.90;;;;;;4935831;29;20175;-67
2021/01/24 09:32:38;;;;;;;30.33;17.97;;;5.00;99.90;;;;;;4930479;29;20225;-67
2021/01/24 09:35:05;;;;;;;25.37;16.57;;;5.00;99.90;;;;;;4936083;29;20441;-67
2021/01/24 09:37:31;;;;;;;29.27;18.70;;;5.00;99.90;;;;;;4938207;29;20665;-66
2021/01/24 09:39:57;;;;;;;26.93;17.97;;;5.20;99.90;;;;;;4938284;29;20426;-66
2021/01/24 09:42:22;;;;;;;28.60;16.70;;;5.20;99.90;;;;;;4938292;29;20450;-67
2021/01/24 09:44:49;;;;;;;35.40;18.33;;;5.20;99.90;;;;;;4936991;29;20277;-66
2021/01/24 09:47:15;;;;;;;30.90;18.37;;;5.20;99.90;;;;;;4938143;29;20669;-71
2021/01/24 09:49:40;;;;;;;30.07;18.50;;;5.20;99.90;;;;;;4941617;29;20442;-72
2021/01/24 09:52:06;;;;;;;31.87;18.07;;;5.20;99.90;;;;;;4937412;29;20234;-72
2021/01/24 09:54:31;;;;;;;31.70;17.03;;;5.10;99.90;;;;;;4954174;29;20253;-72
2021/01/24 09:56:57;;;;;;;30.00;20.80;;;5.20;99.90;;;;;;4942827;29;20186;-71
2021/01/24 09:59:22;;;;;;;33.53;18.20;;;5.20;99.90;;;;;;4949237;29;20186;-72
2021/01/24 10:01:48;;;;;;;32.10;17.90;;;5.20;99.90;;;;;;4949923;29;20646;-72
2021/01/24 10:04:13;;;;;;;24.53;16.27;;;5.20;99.90;;;;;;4942524;29;20184;-72
2021/01/24 10:06:39;;;;;;;33.43;20.97;;;5.20;99.90;;;;;;4953652;29;20187;-72
2021/01/24 10:09:05;;;;;;;29.70;17.17;;;5.10;99.90;;;;;;4930278;29;20189;-71
2021/01/24 10:11:31;;;;;;;31.97;19.80;;;5.10;99.90;;;;;;4938913;28;20250;-71
2021/01/24 10:13:57;;;;;;;29.70;18.47;;;5.10;99.90;;;;;;4938797;29;20466;-71
2021/01/24 10:16:23;;;;;;;35.80;19.83;;;5.10;99.90;;;;;;4949577;29;20197;-71
2021/01/24 10:18:50;;;;;;;31.27;21.17;;;5.10;99.90;;;;;;4941163;28;20179;-71
2021/01/24 10:21:15;;;;;;;36.60;22.47;;;5.20;99.90;;;;;;4952215;28;20441;-72
2021/01/24 10:23:41;;;;;;;34.90;20.40;;;5.20;99.90;;;;;;4945697;28;20990;-72
2021/01/24 10:26:07;;;;;;;38.43;22.07;;;5.20;99.90;;;;;;4945121;29;20242;-72
2021/01/24 10:28:32;;;;;;;37.53;20.23;;;5.20;99.90;;;;;;4939885;29;20188;-71
2021/01/24 10:30:58;;;;;;;29.10;18.50;;;5.20;99.90;;;;;;4951052;29;20214;-72
2021/01/24 10:33:24;;;;;;;29.87;17.37;;;5.20;99.90;;;;;;4942131;29;20183;-73
2021/01/24 10:35:49;;;;;;;27.40;19.23;;;5.20;99.90;;;;;;4953405;29;20202;-72
2021/01/24 10:38:17;;;;;;;31.00;18.80;;;5.30;99.90;;;;;;4946972;29;20556;-70
2021/01/24 10:40:42;;;;;;;22.97;16.00;;;5.30;99.90;;;;;;4946363;28;20194;-73
2021/01/24 10:43:08;;;;;;;23.17;16.37;;;5.40;99.90;;;;;;4935217;29;20934;-72
2021/01/24 10:45:36;;;;;;;28.37;18.00;;;5.40;99.90;;;;;;4935118;29;20426;-72
2021/01/24 10:48:03;;;;;;;22.70;16.30;;;5.40;99.90;;;;;;4935552;28;20942;-73
2021/01/24 10:50:29;;;;;;;22.90;16.30;;;5.40;99.90;;;;;;4937725;29;20436;-72
2021/01/24 10:52:55;;;;;;;24.13;15.83;;;5.40;99.90;;;;;;4931368;29;20486;-70
2021/01/24 10:55:21;;;;;;;23.73;16.07;;;5.40;99.90;;;;;;4941919;29;20820;-72
2021/01/24 10:57:47;;;;;;;28.83;16.10;;;5.30;99.90;;;;;;4933441;29;20182;-76
2021/01/24 11:00:13;;;;;;;21.70;16.27;;;5.30;99.90;;;;;;4929024;29;20439;-76
2021/01/24 11:02:38;;;;;;;28.13;17.73;;;5.30;99.90;;;;;;4930046;29;20193;-73
2021/01/24 11:05:05;;;;;;;25.70;15.17;;;5.30;99.90;;;;;;4929530;29;20427;-70
2021/01/24 11:07:31;;;;;;;21.50;15.50;;;5.30;99.90;;;;;;4929962;29;20549;-72
2021/01/24 11:09:56;;;;;;;26.50;14.67;;;5.30;99.90;;;;;;4928462;29;20763;-72
2021/01/24 11:12:25;;;;;;;19.43;11.97;;;5.40;99.90;;;;;;4927997;29;20221;-72
2021/01/24 11:14:51;;;;;;;15.93;14.00;;;5.40;99.90;;;;;;4930592;29;20171;-73
2021/01/24 11:17:17;;;;;;;22.40;13.93;;;5.40;99.90;;;;;;4926436;29;20436;-72
2021/01/24 11:19:44;;;;;;;16.30;13.17;;;5.40;99.90;;;;;;4926826;29;20438;-72
2021/01/24 11:22:10;;;;;;;18.63;13.00;;;5.40;99.90;;;;;;4926548;29;20438;-72
2021/01/24 11:24:36;;;;;;;16.40;12.63;;;5.40;99.90;;;;;;4925314;29;20942;-72
2021/01/24 11:27:02;;;;;;;24.53;14.03;;;5.40;99.90;;;;;;4925994;29;20525;-71
2021/01/24 11:29:28;;;;;;;18.00;13.70;;;5.40;99.90;;;;;;4925372;29;20183;-72
2021/01/24 11:31:53;;;;;;;14.70;11.23;;;5.40;99.90;;;;;;4926219;29;20550;-69
2021/01/24 11:34:19;;;;;;;15.50;11.87;;;5.40;99.90;;;;;;4927104;29;20222;-72
2021/01/24 11:36:45;;;;;;;16.10;11.70;;;5.40;99.90;;;;;;4936025;29;20190;-72
2021/01/24 11:39:10;;;;;;;24.60;12.60;;;5.40;99.90;;;;;;4936595;29;20191;-72
2021/01/24 11:41:36;;;;;;;30.07;16.73;;;5.50;99.90;;;;;;4933744;29;20435;-73
2021/01/24 11:44:02;;;;;;;20.40;13.87;;;5.50;99.90;;;;;;4931494;29;20667;-72
2021/01/24 11:46:27;;;;;;;34.07;15.10;;;5.50;99.90;;;;;;4933254;29;20184;-70
2021/01/24 11:48:53;;;;;;;22.17;14.57;;;5.50;99.90;;;;;;4940051;29;20186;-72
2021/01/24 11:51:19;;;;;;;23.83;16.73;;;5.40;99.90;;;;;;4936595;29;20202;-71
2021/01/24 11:53:44;;;;;;;24.50;15.47;;;5.30;99.90;;;;;;4937120;29;20175;-72
2021/01/24 11:59:32;;;;;;;18.63;14.30;;;5.20;99.90;;;;;;4936721;29;20174;-72
2021/01/24 12:05:20;;;;;;;20.17;14.20;;;5.20;99.90;;;;;;4936627;29;20476;-72
2021/01/24 12:07:45;;;;;;;19.70;14.70;;;5.20;99.90;;;;;;4936806;29;20597;-72
2021/01/24 12:13:33;;;;;;;21.40;13.57;;;5.20;99.90;;;;;;4936491;29;20549;-72
2021/01/24 12:19:20;;;;;;;17.33;12.93;;;5.20;99.90;;;;;;4936325;29;20169;-72
2021/01/24 12:21:46;;;;;;;22.67;13.70;;;5.20;99.90;;;;;;4936438;29;20418;-72
2021/01/24 12:27:34;;;;;;;17.77;11.70;;;5.20;99.90;;;;;;4936386;29;20177;-72
2021/01/24 12:33:21;;;;;;;17.60;12.57;;;5.20;99.90;;;;;;4936332;29;20431;-72
2021/01/24 12:35:47;;;;;;;20.73;13.27;;;5.20;99.90;;;;;;4936552;29;20426;-72
2021/01/24 12:38:12;;;;;;;17.40;12.40;;;5.10;99.90;;;;;;4936154;29;20178;-72
2021/01/24 12:40:38;;;;;;;21.57;12.83;;;5.10;99.90;;;;;;4936147;29;20246;-72
2021/01/24 12:46:25;;;;;;;25.47;16.40;;;5.30;99.90;;;;;;4936070;29;20163;-72
2021/01/24 12:52:12;;;;;;;31.03;18.77;;;5.10;99.90;;;;;;4939912;29;20245;-72
2021/01/24 12:54:38;;;;;;;34.37;19.13;;;5.10;99.90;;;;;;4940125;29;20774;-72
2021/01/24 12:57:04;;;;;;;30.90;18.33;;;5.10;99.90;;;;;;4940131;29;20223;-72
2021/01/24 12:59:30;;;;;;;32.17;18.87;;;5.10;99.90;;;;;;4940270;29;20183;-72
2021/01/24 13:01:59;;;;;;;33.73;19.90;;;5.10;99.90;;;;;;4939693;29;20470;-72
2021/01/24 13:04:24;;;;;;;35.33;21.97;;;5.10;99.90;;;;;;4939488;29;20550;-72
2021/01/24 13:06:50;;;;;;;45.30;23.63;;;5.10;99.90;;;;;;4940031;29;20447;-73
2021/01/24 13:12:37;;;;;;;43.43;24.43;;;5.30;99.90;;;;;;4939563;29;20258;-73
2021/01/24 13:15:05;;;;;;;52.43;27.60;;;5.40;99.90;;;;;;4939854;29;20429;-74
2021/01/24 13:20:53;;;;;;;55.67;31.87;;;6.30;99.90;;;;;;4939542;29;20474;-72
2021/01/24 13:23:18;;;;;;;52.63;40.90;;;6.90;99.90;;;;;;4939503;29;20423;-72
2021/01/24 13:25:44;;;;;;;1312.17;792.47;;;7.10;99.90;;;;;;4939381;29;20187;-72
2021/01/24 13:28:09;;;;;;;54.27;33.03;;;7.20;99.90;;;;;;4939902;29;20180;-72
2021/01/24 13:30:35;;;;;;;398.23;306.83;;;8.00;99.90;;;;;;4939232;29;20215;-73
2021/01/24 13:33:00;;;;;;;50.43;44.13;;;8.10;99.90;;;;;;4939488;29;20183;-72
2021/01/24 13:38:48;;;;;;;25.07;21.20;;;7.70;99.90;;;;;;4939054;29;20582;-72
2021/01/24 13:41:13;;;;;;;45.83;34.40;;;7.60;99.90;;;;;;4939153;29;20517;-74
2021/01/24 13:47:01;;;;;;;22.30;15.80;;;7.50;99.90;;;;;;4938874;29;20206;-80
2021/01/24 13:49:27;;;;;;;23.27;15.90;;;7.70;99.90;;;;;;4939095;29;20439;-73
2021/01/24 13:51:53;;;;;;;25.97;16.33;;;7.40;99.90;;;;;;4938752;29;20239;-73
2021/01/24 13:54:19;;;;;;;17.50;13.20;;;7.30;99.90;;;;;;4939496;29;20427;-72
2021/01/24 13:56:45;;;;;;;17.60;14.70;;;7.10;99.90;;;;;;4938756;29;20437;-72
2021/01/24 14:02:32;;;;;;;23.97;14.87;;;6.60;99.90;;;;;;4938990;29;20167;-72
2021/01/24 14:04:59;;;;;;;21.53;15.90;;;6.40;99.90;;;;;;4939406;29;20790;-70
2021/01/24 14:07:25;;;;;;;20.70;14.77;;;6.30;99.90;;;;;;4938827;29;20631;-70
2021/01/24 14:09:51;;;;;;;19.80;14.53;;;6.10;99.90;;;;;;4938868;29;20525;-70
2021/01/24 14:15:38;;;;;;;22.60;13.80;;;5.80;99.90;;;;;;4938738;29;20163;-70
2021/01/24 14:18:05;;;;;;;24.03;15.37;;;5.60;99.90;;;;;;4938758;29;20427;-71
2021/01/24 14:23:53;;;;;;;25.50;15.17;;;5.50;99.90;;;;;;4938279;29;20450;-71
2021/01/24 14:26:18;;;;;;;24.40;15.50;;;5.30;99.90;;;;;;4938582;29;20431;-70
2021/01/24 14:32:06;;;;;;;25.83;15.37;;;5.20;99.90;;;;;;4938395;29;20210;-71
2021/01/24 14:34:31;;;;;;;32.83;17.27;;;5.20;99.90;;;;;;4938317;29;20442;-69
2021/01/24 14:36:57;;;;;;;29.43;15.90;;;5.10;99.90;;;;;;4938257;29;20607;-71
2021/01/24 14:42:45;;;;;;;29.00;17.47;;;5.10;99.90;;;;;;4938077;29;20170;-70
2021/01/24 14:45:11;;;;;;;27.70;16.77;;;5.10;99.90;;;;;;4937993;29;20431;-69
2021/01/24 14:47:36;;;;;;;29.07;15.33;;;5.10;99.90;;;;;;4938107;29;20214;-72
2021/01/24 14:50:02;;;;;;;22.00;15.67;;;5.00;99.90;;;;;;4938255;29;20914;-70
2021/01/24 14:52:28;;;;;;;21.60;14.50;;;5.00;99.90;;;;;;4937633;29;20232;-71
2021/01/24 14:54:54;;;;;;;25.60;15.70;;;4.90;99.90;;;;;;4937734;29;20430;-71
2021/01/24 15:00:41;;;;;;;23.23;15.47;;;4.90;99.90;;;;;;4937485;29;20689;-70
2021/01/24 15:03:07;;;;;;;27.90;16.43;;;4.90;99.90;;;;;;4937755;29;20426;-70
2021/01/24 15:05:32;;;;;;;24.43;15.03;;;4.90;99.90;;;;;;4937792;29;20555;-71
2021/01/24 15:07:58;;;;;;;25.43;15.37;;;4.90;99.90;;;;;;4937761;29;20181;-71
2021/01/24 15:10:24;;;;;;;25.77;16.67;;;4.90;99.90;;;;;;4936593;29;20187;-70
2021/01/24 15:12:49;;;;;;;39.10;17.27;;;4.90;99.90;;;;;;4937489;29;20280;-71
2021/01/24 15:15:15;;;;;;;27.90;16.80;;;4.90;99.90;;;;;;4937759;29;20187;-71
2021/01/24 15:17:40;;;;;;;44.97;17.73;;;4.90;99.90;;;;;;4937555;29;20190;-72
2021/01/24 15:23:27;;;;;;;31.37;18.10;;;4.90;99.90;;;;;;4937373;29;20221;-70
2021/01/24 15:25:53;;;;;;;27.00;18.10;;;4.80;99.90;;;;;;4937123;29;20438;-72
2021/01/24 15:28:19;;;;;;;31.00;19.90;;;4.80;99.90;;;;;;4937451;29;20372;-73
2021/01/24 15:30:44;;;;;;;39.07;22.27;;;4.70;99.90;;;;;;4937261;29;20178;-73
2021/01/24 15:33:12;;;;;;;36.10;21.80;;;4.80;99.90;;;;;;4937086;29;20179;-73
2021/01/24 15:35:39;;;;;;;33.60;20.50;;;4.80;99.90;;;;;;4937070;29;20206;-70
2021/01/24 15:38:05;;;;;;;36.40;21.60;;;4.70;99.90;;;;;;4937104;29;20427;-73
2021/01/24 15:40:30;;;;;;;37.27;22.27;;;4.70;99.90;;;;;;4937196;29;20762;-72
2021/01/24 15:46:18;;;;;;;36.40;21.20;;;4.70;99.90;;;;;;4937302;29;20581;-73
2021/01/24 15:48:43;;;;;;;35.37;22.07;;;4.70;99.90;;;;;;4937093;29;20426;-73
2021/01/24 15:51:09;;;;;;;38.90;21.20;;;4.70;99.90;;;;;;4936756;29;20221;-73
2021/01/24 15:53:35;;;;;;;31.70;20.93;;;4.60;99.90;;;;;;4936642;29;20265;-73
2021/01/24 15:56:00;;;;;;;30.93;20.37;;;4.60;99.90;;;;;;4937042;29;20206;-73
2021/01/24 15:58:26;;;;;;;45.97;22.63;;;4.60;99.90;;;;;;4936955;29;20698;-73
2021/01/24 16:00:51;;;;;;;39.70;21.30;;;4.60;99.90;;;;;;4936895;29;20183;-72
2021/01/24 16:03:17;;;;;;;35.13;21.57;;;4.60;99.90;;;;;;4936651;29;20550;-72
2021/01/24 16:05:43;;;;;;;42.00;20.70;;;4.60;99.90;;;;;;4936821;29;20183;-72
2021/01/24 16:08:08;;;;;;;38.10;21.30;;;4.60;99.90;;;;;;4936790;29;20188;-72
2021/01/24 16:10:34;;;;;;;37.53;19.80;;;4.50;99.90;;;;;;4936700;29;20189;-72
2021/01/24 16:12:59;;;;;;;34.83;20.93;;;4.50;99.90;;;;;;4936800;29;20199;-70
2021/01/24 16:15:25;;;;;;;30.37;20.07;;;4.50;99.90;;;;;;4936752;29;20541;-70
2021/01/24 16:17:50;;;;;;;26.27;17.23;;;4.60;99.90;;;;;;4936737;29;20182;-70
2021/01/24 16:23:37;;;;;;;36.97;17.63;;;4.50;99.90;;;;;;4936122;29;20168;-70
2021/01/24 16:26:03;;;;;;;28.80;18.30;;;4.50;99.90;;;;;;4936259;29;20785;-70
2021/01/24 16:28:29;;;;;;;29.97;17.17;;;4.50;99.90;;;;;;4936533;29;20182;-70
2021/01/24 16:30:54;;;;;;;27.30;16.83;;;4.50;99.90;;;;;;4936594;29;20857;-70
2021/01/24 16:33:20;;;;;;;25.83;16.43;;;4.40;99.90;;;;;;4945188;29;20549;-70
2021/01/24 16:39:07;;;;;;;20.20;12.73;;;4.50;99.90;;;;;;4936156;29;20210;-70
2021/01/24 16:41:33;;;;;;;22.97;14.73;;;4.40;99.90;;;;;;4936184;29;20434;-70
2021/01/24 16:47:21;;;;;;;23.90;14.07;;;4.50;99.90;;;;;;4936065;29;20182;-71
2021/01/24 16:53:10;;;;;;;20.50;15.73;;;4.50;99.90;;;;;;4928965;29;20477;-72
2021/01/24 16:58:57;;;;;;;29.77;16.17;;;4.30;99.90;;;;;;4936051;29;20823;-70
2021/01/24 17:01:22;;;;;;;21.70;15.37;;;4.40;99.90;;;;;;4935971;29;20430;-70
2021/01/24 17:07:10;;;;;;;29.07;14.10;;;4.30;99.90;;;;;;4935935;29;20257;-72
2021/01/24 17:09:35;;;;;;;21.13;14.97;;;4.30;99.90;;;;;;4935855;29;20450;-73
2021/01/24 17:12:01;;;;;;;23.13;15.80;;;4.40;99.90;;;;;;4936008;29;20265;-69
2021/01/24 17:17:48;;;;;;;23.00;16.50;;;4.40;99.90;;;;;;4935825;29;20522;-69
2021/01/24 17:23:36;;;;;;;21.80;13.70;;;4.40;99.90;;;;;;4935969;29;20172;-69
2021/01/24 17:26:01;;;;;;;22.60;14.90;;;4.30;99.90;;;;;;4935958;29;20418;-69
2021/01/24 17:31:49;;;;;;;22.57;16.50;;;4.20;99.90;;;;;;4935859;29;20218;-68
2021/01/24 17:37:37;;;;;;;22.53;16.17;;;4.40;99.90;;;;;;4938842;29;20409;-65
2021/01/24 17:43:24;;;;;;;25.87;15.73;;;4.30;99.90;;;;;;4939043;29;20533;-66
2021/01/24 17:49:11;;;;;;;25.70;16.40;;;4.70;99.90;;;;;;4939016;29;20252;-67
2021/01/24 17:51:37;;;;;;;26.50;16.60;;;4.70;99.90;;;;;;4939085;29;21016;-67
2021/01/24 17:57:24;;;;;;;23.57;15.10;;;4.60;99.90;;;;;;4938987;29;20598;-68
2021/01/24 17:59:50;;;;;;;22.93;15.30;;;4.60;99.90;;;;;;4939454;29;20434;-67
2021/01/24 18:02:15;;;;;;;23.30;14.77;;;4.60;99.90;;;;;;4941113;29;20192;-67
2021/01/24 18:04:41;;;;;;;24.53;16.03;;;4.50;99.90;;;;;;4938996;29;20590;-67
2021/01/24 18:07:07;;;;;;;25.40;16.03;;;4.50;99.90;;;;;;4938705;29;20618;-67
2021/01/24 18:09:32;;;;;;;22.30;14.57;;;4.30;99.90;;;;;;4938855;29;20617;-67
2021/01/24 18:11:58;;;;;;;24.53;15.40;;;4.20;99.90;;;;;;4938708;29;20220;-67
2021/01/24 18:14:25;;;;;;;28.70;16.73;;;4.20;99.90;;;;;;4938528;29;20187;-67
2021/01/24 18:16:50;;;;;;;27.20;17.53;;;4.10;99.90;;;;;;4938543;29;20936;-67
2021/01/24 18:19:16;;;;;;;26.77;16.30;;;4.10;99.90;;;;;;4938745;29;20431;-68
2021/01/24 18:21:41;;;;;;;24.90;16.23;;;4.10;99.90;;;;;;4938597;29;20186;-67
2021/01/24 18:24:07;;;;;;;23.17;16.60;;;4.10;99.90;;;;;;4938268;29;20181;-68
2021/01/24 18:26:33;;;;;;;30.60;16.53;;;4.00;99.90;;;;;;4938518;29;20186;-68
2021/01/24 18:28:58;;;;;;;22.33;15.70;;;4.10;99.90;;;;;;4938213;29;20613;-68
2021/01/24 18:31:24;;;;;;;27.30;16.10;;;4.00;99.90;;;;;;4938081;29;20241;-68
2021/01/24 18:33:49;;;;;;;28.50;16.87;;;4.00;99.90;;;;;;4938408;29;20186;-67
2021/01/24 18:36:15;;;;;;;24.37;15.90;;;3.90;99.90;;;;;;4938372;29;20282;-67
2021/01/24 18:42:03;;;;;;;33.40;17.67;;;4.00;99.90;;;;;;4937998;29;20182;-67
2021/01/24 18:44:28;;;;;;;25.40;16.83;;;4.00;99.90;;;;;;4938031;29;20443;-67